Nachod, Czech Republic
Current Conditions -  °F | °C
As of 10:00 PM on Saturday 20 Dec 2014 (Local Time) from LKPD Reporting Station
Moderate Rain Moderate Rain  
Wind Chill: 31°   Ceiling: 3200
Heat Index: 41°   Visibility: 6mi
Dew Point: 34°   Wind: 25mph
Humidity: 76%   Direction: 260°W
Pressure: 29.94"   Gusts: NA
Location:  50.42°N, 16.17°E
Report Text: LKPD 202000Z 26022KT 9999 RA BKN032 OVC060 05/01 Q1014 NOSIG
Loading
Personal Weather Stations






























Interactive Weather Map New forecast layout! Learn more

10-Day Weather Forecast

Advertisements
Track Severe Weather on mobile